Time;durP1;ratioP1;P1;durP2;ratioP2;P2;SDS_P1;SDS_P2;PMS_P1;PMS_P2;Temp;Humidity;BMP_temperature;BMP_pressure;BME280_temperature;BME280_humidity;BME280_pressure;Samples;Min_cycle;Max_cycle;Signal;HPM_P1;HPM_P2
2023/08/04 00:00:18;;;;;;;15.10;3.00;;;;;;;-146.27;100.00;82378.16;5053976;28;20024;-72
2023/08/04 00:02:43;;;;;;;12.00;3.42;;;;;;;-146.27;100.00;82384.19;5054816;28;20028;-72
2023/08/04 00:05:09;;;;;;;18.17;3.78;;;;;;;-146.27;100.00;82358.06;5059429;28;20488;-72
2023/08/04 00:07:36;;;;;;;7.95;2.22;;;;;;;-146.27;100.00;82348.03;5053086;28;20031;-72
2023/08/04 00:10:04;;;;;;;10.93;2.90;;;;;;;-146.27;100.00;82344.00;5063122;28;20033;-72
2023/08/04 00:12:30;;;;;;;15.00;2.83;;;;;;;-146.27;100.00;82372.13;5062081;28;20050;-72
2023/08/04 00:14:55;;;;;;;6.53;2.60;;;;;;;-146.27;100.00;82356.06;5060983;28;20040;-72
2023/08/04 00:17:20;;;;;;;15.02;2.70;;;;;;;-146.27;100.00;82366.09;5057129;28;20021;-72
2023/08/04 00:19:46;;;;;;;13.90;3.13;;;;;;;-146.27;100.00;82380.16;5054745;28;20035;-71
2023/08/04 00:22:11;;;;;;;17.02;3.05;;;;;;;-146.27;100.00;82348.03;5054592;28;20033;-72
2023/08/04 00:24:37;;;;;;;12.98;2.80;;;;;;;-146.27;100.00;82380.16;5052951;28;20444;-72
2023/08/04 00:27:02;;;;;;;14.85;3.08;;;;;;;-146.27;100.00;82340.00;5053237;28;20027;-72
2023/08/04 00:29:28;;;;;;;9.25;2.80;;;;;;;-146.27;100.00;82342.00;5058568;28;20055;-72
2023/08/04 00:31:53;;;;;;;7.95;3.00;;;;;;;-146.27;100.00;82337.97;5054722;28;20040;-73
2023/08/04 00:34:19;;;;;;;8.95;2.85;;;;;;;-146.27;100.00;82342.00;5058170;28;20029;-73
2023/08/04 00:36:45;;;;;;;8.68;2.83;;;;;;;-146.27;100.00;82348.03;5059075;28;20081;-72
2023/08/04 00:39:11;;;;;;;10.43;3.38;;;;;;;-146.27;100.00;82331.97;5061045;28;20116;-73
2023/08/04 00:41:36;;;;;;;18.70;4.05;;;;;;;-146.27;100.00;82366.09;5055252;28;20111;-72
2023/08/04 00:44:02;;;;;;;13.38;2.55;;;;;;;-146.27;100.00;82384.19;5057214;28;20033;-72
2023/08/04 00:46:29;;;;;;;11.30;3.30;;;;;;;-146.27;100.00;82346.03;5054776;28;20540;-73
2023/08/04 00:48:59;;;;;;;20.25;3.40;;;;;;;-146.27;99.79;82331.97;5053463;28;20028;-73
2023/08/04 00:51:25;;;;;;;13.50;2.72;;;;;;;-146.27;99.51;82352.03;5055018;28;20075;-73
2023/08/04 00:53:50;;;;;;;9.98;2.50;;;;;;;-146.27;99.48;82342.00;5052724;28;20598;-73
2023/08/04 00:56:16;;;;;;;17.77;3.00;;;;;;;-146.27;99.23;82307.84;5056150;28;20103;-73
2023/08/04 00:58:41;;;;;;;10.90;2.85;;;;;;;-146.27;98.90;82327.94;5050483;28;20037;-72
2023/08/04 01:01:07;;;;;;;7.78;2.05;;;;;;;-146.27;98.87;82327.94;5062491;28;20104;-73
2023/08/04 01:03:33;;;;;;;5.88;2.50;;;;;;;-146.27;98.80;82329.94;5065796;28;20020;-73
2023/08/04 01:06:25;;;;;;;7.50;2.58;;;;;;;-146.27;98.76;82295.81;5056032;28;20477;-72
2023/08/04 01:09:23;;;;;;;13.45;2.88;;;;;;;-146.27;98.76;82283.75;5068481;28;20029;-73
2023/08/04 01:15:06;;;;;;;8.85;2.83;;;;;;;-146.27;98.80;82285.75;5059539;28;20166;-73
2023/08/04 01:17:32;;;;;;;13.73;2.88;;;;;;;-146.27;98.67;82303.84;5067433;28;20033;-73
2023/08/04 01:19:58;;;;;;;10.68;3.10;;;;;;;-146.27;98.84;82331.97;5064452;28;20020;-73
2023/08/04 01:22:25;;;;;;;10.80;2.30;;;;;;;-146.27;98.80;82311.88;5067380;28;20086;-72
2023/08/04 01:24:52;;;;;;;15.05;3.05;;;;;;;-146.27;98.63;82297.81;5060407;28;21742;-73
2023/08/04 01:27:28;;;;;;;11.82;2.78;;;;;;;-146.27;99.15;82327.94;5055306;28;20024;-73
2023/08/04 01:29:56;;;;;;;10.63;2.70;;;;;;;-146.27;98.93;82303.84;5063838;28;20368;-73
2023/08/04 01:32:22;;;;;;;9.65;2.45;;;;;;;-146.27;99.01;82295.81;5060287;28;20028;-73
2023/08/04 01:34:49;;;;;;;12.25;3.05;;;;;;;-146.27;98.91;82319.91;5063667;28;20385;-73
2023/08/04 01:37:15;;;;;;;11.80;2.55;;;;;;;-146.27;98.86;82323.91;5062366;28;20117;-73
2023/08/04 01:39:40;;;;;;;10.35;3.33;;;;;;;-146.27;98.93;82337.97;5049878;28;20105;-73
2023/08/04 01:42:05;;;;;;;12.82;3.13;;;;;;;-146.27;99.36;82337.97;5051323;28;20673;-73
2023/08/04 01:44:31;;;;;;;12.05;2.88;;;;;;;-146.27;99.13;82307.84;5045002;28;20021;-73
2023/08/04 01:46:56;;;;;;;12.85;3.38;;;;;;;-146.27;98.99;82299.81;5045481;28;20135;-73
2023/08/04 01:49:21;;;;;;;14.90;3.33;;;;;;;-146.27;99.39;82313.88;5045775;28;20032;-73
2023/08/04 01:51:47;;;;;;;14.35;3.28;;;;;;;-146.27;99.13;82323.91;5061457;28;20111;-73
2023/08/04 01:54:12;;;;;;;8.52;3.00;;;;;;;-146.27;99.50;82368.13;5050618;28;21872;-73
2023/08/04 01:56:38;;;;;;;12.35;3.30;;;;;;;-146.27;99.21;82315.88;5052428;28;20025;-73
2023/08/04 01:59:03;;;;;;;13.23;2.92;;;;;;;-146.27;99.37;82340.00;5046050;28;20124;-73
2023/08/04 02:01:28;;;;;;;9.73;2.80;;;;;;;-146.27;99.18;82331.97;5048186;28;20120;-73
2023/08/04 02:03:53;;;;;;;9.90;2.78;;;;;;;-146.27;98.93;82325.94;5061392;28;20066;-73
2023/08/04 02:06:19;;;;;;;11.40;3.17;;;;;;;-146.27;99.00;82255.63;5047292;28;20016;-73
2023/08/04 02:08:44;;;;;;;10.85;3.10;;;;;;;-146.27;98.99;82364.09;5053815;28;20537;-73
2023/08/04 02:11:09;;;;;;;8.18;3.15;;;;;;;-146.27;98.66;82335.97;5048936;28;20487;-73
2023/08/04 02:13:35;;;;;;;12.88;3.72;;;;;;;-146.27;98.40;82360.09;5060969;28;20024;-72
2023/08/04 02:16:00;;;;;;;5.90;2.13;;;;;;;-146.27;98.36;82352.03;5059193;28;20036;-73
2023/08/04 02:18:26;;;;;;;13.50;2.55;;;;;;;-146.27;97.98;82364.09;5069890;28;20033;-73
2023/08/04 02:20:51;;;;;;;10.40;2.83;;;;;;;-146.27;97.59;82368.13;5053886;28;20507;-73
2023/08/04 02:23:16;;;;;;;10.35;2.50;;;;;;;-146.27;97.63;82356.06;5051791;28;20542;-73
2023/08/04 02:25:42;;;;;;;11.50;2.88;;;;;;;-146.27;97.29;82372.13;5052640;28;20151;-73
2023/08/04 02:28:07;;;;;;;8.98;2.35;;;;;;;-146.27;97.14;82348.03;5056670;28;20094;-73
2023/08/04 02:30:33;;;;;;;10.27;2.47;;;;;;;-146.27;97.42;82352.03;5053073;28;20115;-73
2023/08/04 02:32:58;;;;;;;8.80;2.30;;;;;;;-146.27;97.32;82333.97;5051938;28;20074;-72
2023/08/04 02:35:24;;;;;;;8.43;2.55;;;;;;;-146.27;97.62;82396.25;5055946;28;20025;-72
2023/08/04 02:37:49;;;;;;;14.65;2.60;;;;;;;-146.27;97.55;82396.25;5056348;28;20123;-73
2023/08/04 02:40:14;;;;;;;9.77;2.17;;;;;;;-146.27;97.67;82346.03;5063108;28;20043;-73
2023/08/04 02:42:40;;;;;;;10.43;2.35;;;;;;;-146.27;98.15;82460.53;5064791;28;20029;-72
2023/08/04 02:45:06;;;;;;;12.38;2.45;;;;;;;-146.27;98.43;82392.22;5064744;28;20388;-73
2023/08/04 02:47:31;;;;;;;6.00;2.15;;;;;;;-146.27;99.17;82426.38;5057034;28;20483;-72
2023/08/04 02:49:57;;;;;;;6.68;3.28;;;;;;;-146.27;99.64;82428.38;5051627;28;20024;-73
2023/08/04 02:52:22;;;;;;;9.05;2.50;;;;;;;-146.27;99.78;82400.25;5054184;28;20174;-73
2023/08/04 02:54:48;;;;;;;6.45;2.65;;;;;;;-146.27;99.75;82420.34;5060029;28;20120;-73
2023/08/04 02:57:13;;;;;;;10.68;2.92;;;;;;;-146.27;100.00;82402.25;5051520;28;20080;-73
2023/08/04 02:59:39;;;;;;;12.20;2.30;;;;;;;-146.27;100.00;82430.38;5061694;28;20024;-72
2023/08/04 03:02:04;;;;;;;6.85;2.63;;;;;;;-146.27;100.00;82410.31;5067094;28;20028;-73
2023/08/04 03:04:29;;;;;;;6.03;3.38;;;;;;;-146.27;100.00;82402.25;5057824;28;20039;-73
2023/08/04 03:06:55;;;;;;;10.77;2.60;;;;;;;-146.27;100.00;82416.31;5061582;28;20021;-73
2023/08/04 03:09:20;;;;;;;7.00;2.40;;;;;;;-146.27;100.00;82418.34;5052966;28;20204;-73
2023/08/04 03:11:46;;;;;;;7.88;3.03;;;;;;;-146.27;100.00;82398.25;5059336;28;20063;-73
2023/08/04 03:14:11;;;;;;;9.63;2.47;;;;;;;-146.27;100.00;82408.28;5060211;28;20111;-73
2023/08/04 03:16:36;;;;;;;9.10;2.80;;;;;;;-146.27;100.00;82416.31;5062122;28;20415;-73
2023/08/04 03:19:02;;;;;;;9.82;2.60;;;;;;;-146.27;100.00;82444.44;5053347;28;20025;-73
2023/08/04 03:21:27;;;;;;;8.73;2.53;;;;;;;-146.27;100.00;82404.28;5057223;28;20017;-74
2023/08/04 03:23:52;;;;;;;5.45;2.40;;;;;;;-146.27;100.00;82422.34;5052073;28;20036;-73
2023/08/04 03:26:18;;;;;;;8.85;3.17;;;;;;;-146.27;100.00;82420.34;5056146;28;20017;-74
2023/08/04 03:28:43;;;;;;;8.07;3.22;;;;;;;-146.27;100.00;82422.34;5053315;28;20393;-74
2023/08/04 03:31:09;;;;;;;6.63;3.40;;;;;;;-146.27;100.00;82420.34;5052659;28;20508;-75
2023/08/04 03:33:35;;;;;;;7.97;2.55;;;;;;;-146.27;100.00;82416.31;5064927;28;20037;-73
2023/08/04 03:36:00;;;;;;;9.75;3.20;;;;;;;-146.27;100.00;82420.34;5053332;28;20029;-73
2023/08/04 03:38:26;;;;;;;8.60;2.72;;;;;;;-146.27;100.00;82408.28;5050394;28;20047;-73
2023/08/04 03:40:51;;;;;;;5.35;3.05;;;;;;;-146.27;100.00;82424.38;5049881;28;20032;-73
2023/08/04 03:43:16;;;;;;;11.50;3.00;;;;;;;-146.27;100.00;82428.38;5051002;28;20028;-73
2023/08/04 03:45:42;;;;;;;4.03;2.80;;;;;;;-146.27;100.00;82432.41;5054951;28;20024;-73
2023/08/04 03:48:07;;;;;;;9.10;3.25;;;;;;;-146.27;100.00;82432.41;5052066;28;20027;-73
2023/08/04 03:50:33;;;;;;;5.90;2.92;;;;;;;-146.27;100.00;82410.31;5049520;28;20025;-73
2023/08/04 03:52:58;;;;;;;8.90;3.30;;;;;;;-146.27;100.00;82436.41;5047212;28;20036;-73
2023/08/04 03:55:23;;;;;;;5.72;3.03;;;;;;;-146.27;100.00;82444.44;5050104;28;20362;-73
2023/08/04 03:57:49;;;;;;;7.10;2.35;;;;;;;-146.27;100.00;82420.34;5052003;28;20028;-73
2023/08/04 04:00:14;;;;;;;9.55;3.30;;;;;;;-146.27;100.00;82436.41;5054155;28;20455;-73
2023/08/04 04:02:40;;;;;;;8.45;2.72;;;;;;;-146.27;100.00;82408.28;5051848;28;20051;-73
2023/08/04 04:05:05;;;;;;;13.75;3.30;;;;;;;-146.27;100.00;82418.34;5058928;28;20024;-73
2023/08/04 04:07:31;;;;;;;3.78;2.75;;;;;;;-146.27;100.00;82416.31;5054528;28;20094;-72
2023/08/04 04:09:56;;;;;;;9.38;3.05;;;;;;;-146.27;100.00;82416.31;5059059;28;20297;-73
2023/08/04 04:12:22;;;;;;;5.30;2.70;;;;;;;-146.27;100.00;82452.47;5052336;28;20135;-73
2023/08/04 04:14:47;;;;;;;7.68;2.85;;;;;;;-146.27;100.00;82400.25;5057958;28;20040;-73
2023/08/04 04:17:13;;;;;;;7.70;2.65;;;;;;;-146.27;100.00;82346.03;5056490;28;20037;-73
2023/08/04 04:19:38;;;;;;;8.93;2.92;;;;;;;-146.27;100.00;82428.38;5050153;28;20078;-72
2023/08/04 04:22:04;;;;;;;8.48;2.78;;;;;;;-146.27;100.00;82402.25;5053217;28;20032;-72
2023/08/04 04:24:29;;;;;;;6.80;3.00;;;;;;;-146.27;100.00;82396.25;5061213;28;20101;-72
2023/08/04 04:26:54;;;;;;;6.20;2.95;;;;;;;-146.27;100.00;82422.34;5058889;28;20111;-73
2023/08/04 04:29:20;;;;;;;7.43;2.97;;;;;;;-146.27;100.00;82402.25;5052323;28;20064;-73
2023/08/04 04:31:45;;;;;;;5.70;2.80;;;;;;;-146.27;100.00;82408.28;5059679;28;20028;-73
2023/08/04 04:34:11;;;;;;;5.38;3.20;;;;;;;-146.27;100.00;82388.22;5058915;28;20035;-73
2023/08/04 04:36:36;;;;;;;8.23;3.30;;;;;;;-146.27;100.00;82402.25;5057359;28;20036;-73
2023/08/04 04:39:02;;;;;;;9.38;3.58;;;;;;;-146.27;100.00;82400.25;5049829;28;20036;-73
2023/08/04 04:41:28;;;;;;;8.13;3.25;;;;;;;-146.27;100.00;82376.16;5052215;28;20496;-73
2023/08/04 04:43:54;;;;;;;8.23;3.05;;;;;;;-146.27;100.00;82392.22;5063095;28;20079;-72
2023/08/04 04:46:19;;;;;;;9.55;3.25;;;;;;;-146.27;100.00;82396.25;5051061;28;20484;-73
2023/08/04 04:48:44;;;;;;;5.20;3.25;;;;;;;-146.27;100.00;82378.16;5051861;28;20442;-73
2023/08/04 04:51:10;;;;;;;12.25;3.70;;;;;;;-146.27;100.00;82368.13;5050327;28;20033;-73
2023/08/04 04:53:35;;;;;;;7.68;3.72;;;;;;;-146.27;100.00;82315.88;5056293;28;20031;-72
2023/08/04 04:56:00;;;;;;;11.90;3.47;;;;;;;-146.27;100.00;82364.09;5049727;28;20130;-73
2023/08/04 04:58:26;;;;;;;5.70;3.40;;;;;;;-146.27;100.00;82390.22;5056967;28;20033;-73
2023/08/04 05:00:51;;;;;;;10.25;3.60;;;;;;;-146.27;100.00;82360.09;5049940;28;20090;-73
2023/08/04 05:03:17;;;;;;;9.57;3.35;;;;;;;-146.27;100.00;82354.06;5063254;28;20019;-73
2023/08/04 05:05:43;;;;;;;6.05;3.15;;;;;;;-146.27;100.00;82368.13;5054089;28;20436;-73
2023/08/04 05:08:09;;;;;;;6.60;2.97;;;;;;;-146.27;100.00;82329.94;5054304;28;20036;-73
2023/08/04 05:10:34;;;;;;;8.10;2.90;;;;;;;-146.27;100.00;82335.97;5053978;28;20029;-73
2023/08/04 05:13:00;;;;;;;5.38;2.72;;;;;;;-146.27;100.00;82340.00;5052619;28;20381;-74
2023/08/04 05:15:25;;;;;;;7.95;2.90;;;;;;;-146.27;100.00;82305.84;5051200;28;20036;-73
2023/08/04 05:17:50;;;;;;;6.35;2.40;;;;;;;-146.27;100.00;82360.09;5054037;28;20012;-73
2023/08/04 05:20:16;;;;;;;2.78;1.73;;;;;;;-146.27;100.00;82366.09;5055701;28;20147;-73
2023/08/04 05:22:43;;;;;;;6.78;2.53;;;;;;;-146.27;100.00;82374.13;5053968;28;20680;-74
2023/08/04 05:25:08;;;;;;;3.70;2.00;;;;;;;-146.27;100.00;82358.06;5056984;28;20461;-71
2023/08/04 05:27:34;;;;;;;2.88;1.75;;;;;;;-146.27;100.00;82376.16;5054012;28;20020;-73
2023/08/04 05:30:00;;;;;;;6.70;2.60;;;;;;;-146.27;100.00;82408.28;5054809;28;20434;-72
2023/08/04 05:32:26;;;;;;;3.60;2.10;;;;;;;-146.27;100.00;82384.19;5050846;28;20024;-74
2023/08/04 05:34:51;;;;;;;6.22;2.80;;;;;;;-146.27;100.00;82428.38;5055571;28;20017;-72
2023/08/04 05:37:17;;;;;;;5.78;2.40;;;;;;;-146.27;100.00;82402.25;5055998;28;20506;-73
2023/08/04 05:39:42;;;;;;;3.13;2.08;;;;;;;-146.27;100.00;82344.00;5055429;28;21383;-75
2023/08/04 05:42:07;;;;;;;6.57;2.47;;;;;;;-146.27;100.00;82398.25;5055273;28;20435;-73
2023/08/04 05:44:33;;;;;;;3.47;2.28;;;;;;;-146.27;100.00;82364.09;5057077;28;20020;-73
2023/08/04 05:46:59;;;;;;;8.82;2.35;;;;;;;-146.27;100.00;82372.13;5057416;28;20473;-73
2023/08/04 05:49:24;;;;;;;9.88;2.78;;;;;;;-146.27;100.00;82388.22;5064784;28;20032;-73
2023/08/04 05:51:50;;;;;;;8.48;2.28;;;;;;;-146.27;100.00;82376.16;5060541;28;20688;-73
2023/08/04 05:54:15;;;;;;;4.60;2.20;;;;;;;-146.27;100.00;82380.16;5051542;28;20029;-73
2023/08/04 05:56:40;;;;;;;9.05;2.35;;;;;;;-146.27;100.00;82346.03;5052988;28;20033;-73
2023/08/04 05:59:06;;;;;;;6.63;2.50;;;;;;;-146.27;100.00;82348.03;5055377;28;20036;-74
2023/08/04 06:01:31;;;;;;;6.90;2.80;;;;;;;-146.27;100.00;82362.09;5067138;28;20021;-73
2023/08/04 06:03:56;;;;;;;6.90;2.28;;;;;;;-146.27;100.00;82348.03;5053007;28;20033;-73
2023/08/04 06:06:22;;;;;;;5.93;2.63;;;;;;;-146.27;100.00;82333.97;5060617;28;20059;-73
2023/08/04 06:08:47;;;;;;;10.45;2.70;;;;;;;-146.27;100.00;82297.81;5055129;28;20032;-73
2023/08/04 06:11:13;;;;;;;6.20;2.50;;;;;;;-146.27;100.00;82307.84;5049925;28;20045;-73
2023/08/04 06:13:40;;;;;;;6.00;2.30;;;;;;;-146.27;100.00;82283.75;5062680;28;20038;-71
2023/08/04 06:16:05;;;;;;;11.45;2.58;;;;;;;-146.27;100.00;82255.63;5058837;28;20064;-70
2023/08/04 06:18:31;;;;;;;7.53;2.38;;;;;;;-146.27;100.00;82301.81;5051260;28;20504;-71
2023/08/04 06:20:56;;;;;;;5.68;2.20;;;;;;;-146.27;100.00;82261.66;5049171;28;20029;-71
2023/08/04 06:23:22;;;;;;;6.40;2.50;;;;;;;-146.27;100.00;82259.66;5057554;28;20040;-71
2023/08/04 06:25:47;;;;;;;6.53;1.90;;;;;;;-146.27;100.00;82231.53;5050783;28;20488;-71
2023/08/04 06:28:13;;;;;;;7.97;2.10;;;;;;;-146.27;100.00;82251.59;5053469;28;20021;-69
2023/08/04 06:30:38;;;;;;;7.78;2.15;;;;;;;-146.27;100.00;82181.31;5049867;28;20052;-71
2023/08/04 06:33:03;;;;;;;6.93;2.10;;;;;;;-146.27;100.00;82235.53;5055332;28;20027;-71
2023/08/04 06:35:29;;;;;;;8.25;1.98;;;;;;;-146.27;100.00;82201.38;5062777;28;20389;-71
2023/08/04 06:37:54;;;;;;;5.65;1.70;;;;;;;-146.27;99.74;82179.28;5052965;28;20056;-71
2023/08/04 06:40:19;;;;;;;8.15;1.90;;;;;;;-146.27;99.75;82199.38;5066232;28;20020;-71
2023/08/04 06:42:45;;;;;;;4.10;1.60;;;;;;;-146.27;99.22;82094.94;5054120;28;20035;-74
2023/08/04 06:45:11;;;;;;;7.53;1.55;;;;;;;-146.27;99.24;82213.44;5055949;28;20079;-75
2023/08/04 06:47:36;;;;;;;8.93;1.95;;;;;;;-146.27;99.15;82137.13;5066056;28;20380;-74
2023/08/04 06:50:03;;;;;;;5.22;1.70;;;;;;;-146.27;99.00;82151.16;5070227;28;20460;-74
2023/08/04 06:52:30;;;;;;;3.72;1.60;;;;;;;-146.27;98.92;82131.09;5055607;28;20070;-73
2023/08/04 06:54:55;;;;;;;9.65;1.92;;;;;;;-146.27;98.89;82106.97;5057950;28;20028;-74
2023/08/04 06:57:21;;;;;;;7.97;2.00;;;;;;;-146.27;99.00;82094.94;5049462;28;20668;-74
2023/08/04 06:59:46;;;;;;;10.30;2.00;;;;;;;-146.27;98.83;82078.84;5048243;28;20036;-75
2023/08/04 07:02:11;;;;;;;13.63;1.92;;;;;;;-146.27;98.33;82074.84;5049649;28;20021;-73
2023/08/04 07:04:37;;;;;;;9.90;2.05;;;;;;;-146.27;97.13;82143.13;5063945;28;20040;-74
2023/08/04 07:07:02;;;;;;;7.15;1.98;;;;;;;-146.27;95.96;82070.81;5068008;28;20037;-74
2023/08/04 07:09:28;;;;;;;10.73;2.20;;;;;;;-146.27;96.00;82074.84;5060360;28;20017;-74
2023/08/04 07:11:53;;;;;;;8.38;1.85;;;;;;;-146.27;96.28;82054.75;5064262;28;20055;-73
2023/08/04 07:14:19;;;;;;;7.53;1.70;;;;;;;-146.27;95.93;82078.84;5066307;28;20599;-74
2023/08/04 07:16:47;;;;;;;4.97;1.50;;;;;;;-146.27;96.16;82032.66;5059574;28;20028;-74
2023/08/04 07:19:13;;;;;;;6.55;1.63;;;;;;;-146.27;95.52;82022.63;5052754;28;20029;-74
2023/08/04 07:21:38;;;;;;;10.63;2.45;;;;;;;-146.27;95.23;82010.56;5063164;28;20035;-73
2023/08/04 07:24:04;;;;;;;8.65;1.58;;;;;;;-146.27;93.89;82002.53;5058610;28;20032;-74
2023/08/04 07:26:31;;;;;;;9.20;2.35;;;;;;;-146.27;94.04;82010.56;5060137;28;20017;-74
2023/08/04 07:28:57;;;;;;;8.30;2.03;;;;;;;-146.27;92.61;81982.44;5064317;28;20480;-71
2023/08/04 07:31:23;;;;;;;15.00;2.28;;;;;;;-146.27;93.11;81930.22;5054996;28;20036;-73
2023/08/04 07:33:48;;;;;;;8.02;1.60;;;;;;;-146.27;92.15;81962.34;5052023;28;20037;-73
2023/08/04 07:36:13;;;;;;;9.70;1.88;;;;;;;-146.27;91.06;81954.31;5058330;28;20446;-72
2023/08/04 07:38:39;;;;;;;8.90;2.00;;;;;;;-146.27;91.17;81946.28;5070338;28;20531;-72
2023/08/04 07:41:04;;;;;;;5.65;1.45;;;;;;;-146.27;91.62;81904.13;5069114;28;20051;-73
2023/08/04 07:43:30;;;;;;;8.25;1.60;;;;;;;-146.27;91.48;81884.03;5063806;28;20082;-73
2023/08/04 07:45:55;;;;;;;6.72;1.60;;;;;;;-146.27;90.85;81847.88;5051536;28;20021;-73
2023/08/04 07:48:21;;;;;;;5.82;1.73;;;;;;;-146.27;89.31;81821.75;5056805;28;20020;-71
2023/08/04 07:50:49;;;;;;;9.15;1.65;;;;;;;-146.27;88.85;81789.63;5054174;28;20074;-71
2023/08/04 07:53:14;;;;;;;10.35;1.88;;;;;;;-146.27;88.50;81817.75;5052854;28;20075;-71
2023/08/04 07:55:40;;;;;;;7.57;1.15;;;;;;;-146.27;88.58;81817.75;5059885;28;20025;-72
2023/08/04 07:58:09;;;;;;;5.03;1.10;;;;;;;-146.27;89.46;81821.75;5062121;28;20032;-72
2023/08/04 08:00:35;;;;;;;9.50;1.83;;;;;;;-146.27;88.89;81884.03;5067933;28;20104;-72
2023/08/04 08:03:01;;;;;;;8.65;1.70;;;;;;;-146.27;88.33;81914.16;5064630;28;20369;-72
2023/08/04 08:05:26;;;;;;;7.53;1.50;;;;;;;-146.27;88.67;81920.19;5070517;28;20070;-71
2023/08/04 08:07:51;;;;;;;8.65;1.70;;;;;;;-146.27;87.88;81960.34;5055104;28;20484;-72
2023/08/04 08:10:18;;;;;;;7.57;1.85;;;;;;;-146.27;88.39;81930.22;5058599;28;20019;-72
2023/08/04 08:12:43;;;;;;;13.05;1.65;;;;;;;-146.27;88.59;81938.25;5065901;28;20452;-71
2023/08/04 08:15:09;;;;;;;6.85;1.92;;;;;;;-146.27;87.48;81962.34;5069163;28;20078;-72
2023/08/04 08:17:35;;;;;;;6.90;1.33;;;;;;;-146.27;86.31;81966.38;5071331;28;20456;-72
2023/08/04 08:20:00;;;;;;;4.80;1.33;;;;;;;-146.27;86.56;81900.09;5062480;28;20021;-72
2023/08/04 08:22:25;;;;;;;9.30;1.25;;;;;;;-146.27;86.37;81878.00;5058905;28;20096;-73
2023/08/04 08:24:54;;;;;;;4.05;0.90;;;;;;;-146.27;86.02;81890.06;5062324;28;20423;-72
2023/08/04 08:27:20;;;;;;;2.95;0.90;;;;;;;-146.27;85.72;81813.72;5051933;28;20389;-73
2023/08/04 08:29:46;;;;;;;3.65;0.80;;;;;;;-146.27;85.35;81817.75;5052602;28;20083;-73
2023/08/04 08:32:11;;;;;;;3.00;1.02;;;;;;;-146.27;86.07;81787.63;5061334;28;20108;-73
2023/08/04 08:34:37;;;;;;;6.50;1.20;;;;;;;-146.27;85.98;81721.34;5056396;28;20024;-72
2023/08/04 08:37:03;;;;;;;8.88;1.92;;;;;;;-146.27;84.72;81709.28;5060342;28;20032;-72
2023/08/04 08:39:29;;;;;;;6.38;1.33;;;;;;;-146.27;84.80;81687.19;5056864;28;20104;-72
2023/08/04 08:41:57;;;;;;;4.57;1.17;;;;;;;-146.27;82.97;81636.97;5059675;28;20046;-71
2023/08/04 08:44:22;;;;;;;4.18;1.02;;;;;;;-146.27;82.36;81632.97;5052277;28;20119;-72
2023/08/04 08:46:48;;;;;;;4.72;1.20;;;;;;;-146.27;79.33;81554.63;5070358;28;20425;-74
2023/08/04 08:49:14;;;;;;;7.75;1.10;;;;;;;-146.27;79.42;81548.59;5059907;28;20381;-74
2023/08/04 08:51:44;;;;;;;2.22;0.80;;;;;;;-146.27;79.58;81492.38;5064736;28;20039;-73
2023/08/04 08:54:10;;;;;;;3.58;0.95;;;;;;;-146.27;78.24;81476.31;5054490;28;20108;-71
2023/08/04 08:56:36;;;;;;;7.15;2.15;;;;;;;-146.27;77.79;81436.16;5052519;28;20120;-73
2023/08/04 08:59:01;;;;;;;2.35;0.95;;;;;;;-146.27;76.85;81404.00;5053381;28;20032;-73
2023/08/04 09:01:27;;;;;;;5.63;1.08;;;;;;;-146.27;77.30;81381.91;5055847;28;20028;-73
2023/08/04 09:03:53;;;;;;;5.30;0.80;;;;;;;-146.27;76.37;81365.84;5058947;28;20040;-73
2023/08/04 09:06:21;;;;;;;2.33;1.02;;;;;;;-146.27;76.52;81311.63;5069810;28;20031;-73
2023/08/04 09:08:47;;;;;;;8.18;1.30;;;;;;;-146.27;76.83;81375.91;5056708;28;20024;-74
2023/08/04 09:11:13;;;;;;;4.03;0.90;;;;;;;-146.27;77.06;81377.91;5050615;28;20029;-74
2023/08/04 09:13:42;;;;;;;5.43;1.80;;;;;;;-146.27;75.23;81404.00;5051251;28;20051;-77
2023/08/04 09:16:11;;;;;;;3.95;0.88;;;;;;;-146.27;74.03;81397.97;5065344;28;20082;-75
2023/08/04 09:18:38;;;;;;;7.15;1.50;;;;;;;-146.27;74.66;81335.72;5052339;28;20047;-75
2023/08/04 09:21:08;;;;;;;4.22;0.85;;;;;;;-146.27;74.70;81331.72;5056275;28;20057;-75
2023/08/04 09:23:48;;;;;;;6.47;1.40;;;;;;;-146.27;75.97;81355.81;5050218;28;20101;-76
2023/08/04 09:26:14;;;;;;;9.52;1.55;;;;;;;-146.27;77.86;81410.03;5054965;28;20029;-73
2023/08/04 09:28:39;;;;;;;6.65;2.40;;;;;;;-146.27;78.45;81500.41;5059753;28;20024;-74
2023/08/04 09:31:10;;;;;;;5.75;1.05;;;;;;;-146.27;79.43;81480.31;5051521;28;20024;-75
2023/08/04 09:33:41;;;;;;;3.70;0.85;;;;;;;-146.27;79.86;81498.41;5050556;28;20476;-75
2023/08/04 09:36:07;;;;;;;2.10;0.88;;;;;;;-146.27;80.50;81528.53;5059633;28;20114;-75
2023/08/04 09:38:34;;;;;;;5.20;1.10;;;;;;;-146.27;80.63;81546.59;5049752;28;20479;-74
2023/08/04 09:41:01;;;;;;;3.72;1.33;;;;;;;-146.27;80.38;81528.53;5057737;28;20028;-75
2023/08/04 09:43:27;;;;;;;4.18;1.00;;;;;;;-146.27;81.21;81534.56;5050101;28;20031;-75
2023/08/04 09:46:06;;;;;;;5.55;0.85;;;;;;;-146.27;81.70;81492.38;5050465;28;20056;-75
2023/08/04 09:48:32;;;;;;;8.00;1.13;;;;;;;-146.27;80.21;81464.25;5051938;28;20389;-74
2023/08/04 09:51:07;;;;;;;4.60;0.90;;;;;;;-146.27;78.24;81428.09;5062584;28;20059;-75
2023/08/04 09:53:39;;;;;;;3.05;0.70;;;;;;;-146.27;76.21;81412.03;5050405;28;20052;-74
2023/08/04 09:56:04;;;;;;;8.75;0.90;;;;;;;-146.27;78.04;81335.72;5062747;28;20029;-75
2023/08/04 09:58:30;;;;;;;2.35;0.80;;;;;;;-146.27;75.51;81323.69;5056691;28;20060;-74
2023/08/04 10:00:57;;;;;;;2.90;0.90;;;;;;;-146.27;75.20;81253.38;5051597;28;20024;-76
2023/08/04 10:03:23;;;;;;;3.45;0.70;;;;;;;-146.27;73.58;81237.31;5066493;28;20086;-72
2023/08/04 10:05:49;;;;;;;0.70;0.50;;;;;;;-146.27;74.05;81142.94;5051780;28;20028;-75
2023/08/04 10:08:15;;;;;;;3.28;0.60;;;;;;;-146.27;72.97;81144.94;5061776;28;20025;-73
2023/08/04 10:10:41;;;;;;;5.07;0.70;;;;;;;-146.27;73.42;81078.69;5058510;28;20056;-74
2023/08/04 10:13:08;;;;;;;5.38;0.80;;;;;;;-146.27;70.28;81094.75;5058170;28;20120;-74
2023/08/04 10:15:33;;;;;;;3.50;0.70;;;;;;;-146.27;72.58;81096.75;5059008;28;20052;-72
2023/08/04 10:18:00;;;;;;;3.83;0.50;;;;;;;-146.27;71.03;81078.69;5049183;28;20508;-74
2023/08/04 10:20:27;;;;;;;2.55;0.80;;;;;;;-146.27;73.97;81006.38;5065296;28;20025;-74
2023/08/04 10:22:53;;;;;;;3.30;0.73;;;;;;;-146.27;68.98;81002.38;5068120;28;20060;-74
2023/08/04 10:25:18;;;;;;;1.02;0.52;;;;;;;-146.27;71.09;80883.88;5054347;28;20087;-76
2023/08/04 10:27:50;;;;;;;1.10;0.43;;;;;;;-146.27;69.61;80974.25;5050813;28;20112;-74
2023/08/04 10:30:17;;;;;;;1.55;0.43;;;;;;;-146.27;67.93;80962.22;5053753;28;20495;-74
2023/08/04 10:32:42;;;;;;;3.47;0.63;;;;;;;-146.27;68.06;80918.03;5055162;28;20032;-74
2023/08/04 10:35:21;;;;;;;1.02;0.70;;;;;;;-146.27;70.89;80843.72;5064228;28;20032;-75
2023/08/04 10:37:53;;;;;;;1.63;0.52;;;;;;;-146.27;68.49;80833.69;5061213;28;20028;-74
2023/08/04 10:40:33;;;;;;;1.70;0.50;;;;;;;-146.27;69.24;80821.63;5050168;28;20124;-74
2023/08/04 10:43:20;;;;;;;3.15;0.40;;;;;;;-146.27;69.93;80713.22;5050583;28;20425;-75
2023/08/04 10:45:52;;;;;;;1.83;0.60;;;;;;;-146.27;66.00;80729.28;5064565;28;20036;-74
2023/08/04 10:48:25;;;;;;;1.52;0.70;;;;;;;-146.27;64.76;80749.34;5054064;28;20029;-74
2023/08/04 10:50:51;;;;;;;2.63;0.80;;;;;;;-146.27;65.34;80938.09;5061492;28;20040;-74
2023/08/04 10:53:17;;;;;;;3.03;0.65;;;;;;;-146.27;67.49;80926.06;5059183;28;20025;-74
2023/08/04 10:55:54;;;;;;;4.15;0.80;;;;;;;-146.27;69.68;80825.66;5065128;28;20136;-73
2023/08/04 10:58:22;;;;;;;2.45;0.70;;;;;;;-146.27;68.99;80749.34;5074090;28;20113;-73
2023/08/04 11:00:47;;;;;;;2.47;0.70;;;;;;;-146.27;69.28;80652.97;5066972;28;20035;-73
2023/08/04 11:03:46;;;;;;;3.35;0.50;;;;;;;-146.27;64.37;80650.97;5057963;28;20424;-73
2023/08/04 11:06:12;;;;;;;3.13;0.60;;;;;;;-146.27;65.70;80564.63;5054819;28;20041;-73
2023/08/04 11:08:37;;;;;;;3.60;0.82;;;;;;;-146.27;68.91;80540.53;5053650;28;20032;-73
2023/08/04 11:11:03;;;;;;;1.38;0.40;;;;;;;-146.27;68.27;80432.09;5062005;28;20040;-73